Time;durP1;ratioP1;P1;durP2;ratioP2;P2;SDS_P1;SDS_P2;PMS_P1;PMS_P2;Temp;Humidity;BMP_temperature;BMP_pressure;BME280_temperature;BME280_humidity;BME280_pressure;Samples;Min_cycle;Max_cycle;Signal;HPM_P1;HPM_P2
2022/04/22 00:01:07;;;;;;;14.98;4.05;;;6.50;99.90;;;;;;4989294;28;20105;-79
2022/04/22 00:03:35;;;;;;;12.55;4.20;;;6.50;99.90;;;;;;4972903;28;20046;-79
2022/04/22 00:06:04;;;;;;;11.82;3.97;;;6.40;99.90;;;;;;4966417;28;20091;-79
2022/04/22 00:08:31;;;;;;;11.20;3.80;;;6.40;99.90;;;;;;4973448;28;20053;-79
2022/04/22 00:13:44;;;;;;;10.05;3.85;;;6.30;99.90;;;;;;4972090;28;20061;-79
2022/04/22 00:16:12;;;;;;;10.88;3.78;;;6.30;99.90;;;;;;4973836;28;20094;-79
2022/04/22 00:18:39;;;;;;;17.63;5.10;;;6.30;99.90;;;;;;4973255;28;20050;-80
2022/04/22 00:21:08;;;;;;;15.85;4.93;;;6.30;99.90;;;;;;4973620;28;20051;-79
2022/04/22 00:23:35;;;;;;;9.43;4.55;;;6.30;99.90;;;;;;4973125;28;20538;-79
2022/04/22 00:26:04;;;;;;;13.18;4.47;;;6.20;99.90;;;;;;4972418;28;20511;-79
2022/04/22 00:28:31;;;;;;;9.82;3.97;;;6.20;99.90;;;;;;4972033;28;20101;-79
2022/04/22 00:30:58;;;;;;;9.75;3.90;;;6.20;99.90;;;;;;4973421;28;20582;-80
2022/04/22 00:33:26;;;;;;;12.90;4.68;;;6.10;99.90;;;;;;4963022;28;20138;-79
2022/04/22 00:35:54;;;;;;;14.57;5.03;;;6.10;99.90;;;;;;4972942;28;20066;-79
2022/04/22 00:38:22;;;;;;;15.55;5.10;;;6.10;99.90;;;;;;4971579;28;20133;-79
2022/04/22 00:40:52;;;;;;;16.70;5.28;;;6.00;99.90;;;;;;4968891;28;20047;-79
2022/04/22 00:43:21;;;;;;;13.68;4.40;;;6.00;99.90;;;;;;4971527;28;20039;-79
2022/04/22 00:45:50;;;;;;;18.55;5.55;;;6.00;99.90;;;;;;4972993;28;20345;-80
2022/04/22 00:48:20;;;;;;;19.90;6.57;;;5.90;99.90;;;;;;4972758;28;20066;-79
2022/04/22 00:50:48;;;;;;;16.13;7.00;;;5.90;99.90;;;;;;4970210;28;20061;-79
2022/04/22 00:53:16;;;;;;;21.92;6.43;;;5.90;99.90;;;;;;4974589;28;20081;-78
2022/04/22 00:55:46;;;;;;;14.63;5.18;;;5.80;99.90;;;;;;4971053;28;20149;-78
2022/04/22 00:58:14;;;;;;;13.85;5.40;;;5.80;99.90;;;;;;4987565;28;20093;-79
2022/04/22 01:00:42;;;;;;;12.35;5.10;;;5.70;99.90;;;;;;4954647;28;20531;-79
2022/04/22 01:03:09;;;;;;;18.40;5.30;;;5.70;99.90;;;;;;4953922;28;20059;-78
2022/04/22 01:11:09;;;;;;;17.85;5.90;;;5.60;99.90;;;;;;4970471;28;20514;-77
2022/04/22 01:13:37;;;;;;;14.27;5.25;;;5.50;99.90;;;;;;4972288;28;20058;-78
2022/04/22 01:16:05;;;;;;;10.32;5.55;;;5.60;99.90;;;;;;4971097;28;20069;-78
2022/04/22 01:18:33;;;;;;;17.77;5.63;;;5.50;99.90;;;;;;4970947;28;20054;-77
2022/04/22 01:21:03;;;;;;;11.02;4.75;;;5.50;99.90;;;;;;4970744;28;20053;-79
2022/04/22 01:23:34;;;;;;;11.65;5.00;;;5.50;99.90;;;;;;4971161;28;20439;-78
2022/04/22 01:26:02;;;;;;;19.42;5.32;;;5.50;99.90;;;;;;4967635;28;20043;-78
2022/04/22 01:28:30;;;;;;;22.20;5.70;;;5.50;99.90;;;;;;4971489;28;20042;-78
2022/04/22 01:30:59;;;;;;;12.68;4.50;;;5.50;99.90;;;;;;4971018;28;20042;-78
2022/04/22 01:33:27;;;;;;;9.25;4.05;;;5.40;99.90;;;;;;4972073;28;20416;-78
2022/04/22 01:35:54;;;;;;;9.43;4.60;;;5.40;99.90;;;;;;4970032;28;20050;-77
2022/04/22 01:38:23;;;;;;;18.60;4.75;;;5.40;99.90;;;;;;4971970;28;20055;-76
2022/04/22 01:40:50;;;;;;;9.38;4.85;;;5.40;99.90;;;;;;4967437;28;20141;-76
2022/04/22 01:43:18;;;;;;;10.20;5.07;;;5.30;99.90;;;;;;4967003;28;20150;-77
2022/04/22 01:45:52;;;;;;;11.07;5.53;;;5.30;99.90;;;;;;4969653;28;20050;-77
2022/04/22 01:48:20;;;;;;;12.65;5.57;;;5.20;99.90;;;;;;4971769;28;20078;-77
2022/04/22 01:50:47;;;;;;;16.25;6.05;;;5.20;99.90;;;;;;4970915;28;20056;-77
2022/04/22 01:53:15;;;;;;;15.90;5.60;;;5.10;99.90;;;;;;4982857;28;20149;-76
2022/04/22 01:55:44;;;;;;;20.08;6.80;;;5.00;99.90;;;;;;4952849;28;20090;-76
2022/04/22 01:58:11;;;;;;;13.93;6.22;;;5.00;99.90;;;;;;4972261;28;20051;-77
2022/04/22 02:00:38;;;;;;;16.92;6.00;;;5.00;99.90;;;;;;4971457;28;20082;-76
2022/04/22 02:03:06;;;;;;;10.15;4.80;;;4.90;99.90;;;;;;4967897;28;20127;-77
2022/04/22 02:05:34;;;;;;;13.20;5.22;;;4.90;99.90;;;;;;4971401;28;20046;-77
2022/04/22 02:08:01;;;;;;;11.40;5.30;;;4.80;99.90;;;;;;4985736;28;20125;-77
2022/04/22 02:10:28;;;;;;;17.63;6.15;;;4.80;99.90;;;;;;4974705;28;20055;-77
2022/04/22 02:12:57;;;;;;;12.90;5.97;;;4.80;99.90;;;;;;4959527;28;20078;-77
2022/04/22 02:15:26;;;;;;;12.02;5.40;;;4.70;99.90;;;;;;4972308;28;20140;-77
2022/04/22 02:17:54;;;;;;;14.02;5.15;;;4.70;99.90;;;;;;4975633;28;20061;-76
2022/04/22 02:20:22;;;;;;;17.63;5.20;;;4.60;99.90;;;;;;4957423;28;20043;-76
2022/04/22 02:22:49;;;;;;;13.57;5.45;;;4.70;99.90;;;;;;4975344;28;20050;-75
2022/04/22 02:25:17;;;;;;;13.38;4.85;;;4.70;99.90;;;;;;4975372;28;20114;-76
2022/04/22 02:30:31;;;;;;;13.35;4.57;;;4.70;99.90;;;;;;4976487;28;20043;-75
2022/04/22 02:32:59;;;;;;;10.93;5.15;;;4.70;99.90;;;;;;4976670;28;20121;-77
2022/04/22 02:35:26;;;;;;;14.27;4.95;;;4.80;99.90;;;;;;4974717;28;20055;-76
2022/04/22 02:37:53;;;;;;;14.00;4.72;;;4.80;99.90;;;;;;4973630;28;20055;-76
2022/04/22 02:45:52;;;;;;;20.25;9.27;;;4.80;99.90;;;;;;4973624;28;20049;-76
2022/04/22 02:48:20;;;;;;;13.18;5.30;;;4.70;99.90;;;;;;4965343;28;20051;-76
2022/04/22 02:50:48;;;;;;;9.63;5.93;;;4.70;99.90;;;;;;4961042;28;20057;-77
2022/04/22 02:53:16;;;;;;;18.77;5.20;;;4.70;99.90;;;;;;4975193;28;20113;-76
2022/04/22 02:55:50;;;;;;;16.30;5.38;;;4.70;99.90;;;;;;4973271;28;20058;-76
2022/04/22 02:58:18;;;;;;;9.27;4.90;;;4.70;99.90;;;;;;4971493;28;20054;-75
2022/04/22 03:00:45;;;;;;;14.43;5.55;;;4.70;99.90;;;;;;4974665;28;20050;-76
2022/04/22 03:03:15;;;;;;;14.88;5.78;;;4.70;99.90;;;;;;4973472;28;20427;-76
2022/04/22 03:05:42;;;;;;;18.75;5.25;;;4.80;99.90;;;;;;4969747;28;20155;-75
2022/04/22 03:08:09;;;;;;;14.80;5.43;;;4.80;99.90;;;;;;4985513;28;20404;-76
2022/04/22 03:10:37;;;;;;;15.88;5.38;;;4.90;99.90;;;;;;4972576;28;20512;-76
2022/04/22 03:13:04;;;;;;;12.02;6.03;;;4.90;99.90;;;;;;4973285;28;20051;-76
2022/04/22 03:15:33;;;;;;;57.00;8.55;;;4.90;99.90;;;;;;4972072;28;20057;-77
2022/04/22 03:18:01;;;;;;;110.05;10.25;;;4.90;99.90;;;;;;4973564;28;20499;-76
2022/04/22 03:20:31;;;;;;;29.40;7.00;;;4.90;99.90;;;;;;4973963;28;20043;-76
2022/04/22 03:22:58;;;;;;;21.83;6.50;;;4.90;99.90;;;;;;4974994;28;20051;-77
2022/04/22 03:25:25;;;;;;;16.90;6.90;;;4.90;99.90;;;;;;4959403;28;20515;-76
2022/04/22 03:27:53;;;;;;;14.70;5.70;;;4.90;99.90;;;;;;4973602;28;20074;-77
2022/04/22 03:30:21;;;;;;;19.52;5.60;;;4.90;99.90;;;;;;4972925;28;20042;-77
2022/04/22 03:32:48;;;;;;;23.08;7.15;;;4.90;99.90;;;;;;4970124;28;20419;-76
2022/04/22 03:35:16;;;;;;;14.43;5.32;;;5.00;99.90;;;;;;4964833;28;20141;-76
2022/04/22 03:37:44;;;;;;;13.23;5.38;;;5.00;99.90;;;;;;4974283;28;20046;-77
2022/04/22 03:40:12;;;;;;;10.02;4.90;;;5.00;99.90;;;;;;4974205;28;20062;-77
2022/04/22 03:42:41;;;;;;;12.52;4.60;;;5.10;99.90;;;;;;4972464;28;20047;-77
2022/04/22 03:45:09;;;;;;;15.98;4.30;;;5.20;99.90;;;;;;4973836;28;20365;-77
2022/04/22 03:47:37;;;;;;;10.55;5.05;;;5.20;99.90;;;;;;4974126;28;20471;-78
2022/04/22 03:50:05;;;;;;;9.07;4.57;;;5.30;99.90;;;;;;4974295;28;20105;-78
2022/04/22 03:52:32;;;;;;;21.52;4.57;;;5.30;99.90;;;;;;4971373;28;20077;-78
2022/04/22 03:55:01;;;;;;;38.63;7.85;;;5.30;99.90;;;;;;4972268;28;20043;-78
2022/04/22 04:00:14;;;;;;;5.72;4.13;;;5.50;99.90;;;;;;4967928;28;20064;-80
2022/04/22 04:02:42;;;;;;;19.48;5.35;;;5.50;99.90;;;;;;4976468;28;20051;-79
2022/04/22 04:05:10;;;;;;;12.75;5.65;;;5.50;99.90;;;;;;4973666;28;20059;-79
2022/04/22 04:07:38;;;;;;;14.63;5.60;;;5.50;99.90;;;;;;4986975;28;20058;-77
2022/04/22 04:16:00;;;;;;;12.63;5.07;;;5.60;99.90;;;;;;4960086;28;20059;-76
2022/04/22 04:18:30;;;;;;;10.73;4.10;;;5.70;99.90;;;;;;4971032;28;20050;-77
2022/04/22 04:23:40;;;;;;;12.65;4.50;;;5.70;99.90;;;;;;4946681;28;20134;-77
2022/04/22 04:26:10;;;;;;;10.27;4.28;;;5.80;99.90;;;;;;4964458;28;20049;-75
2022/04/22 04:28:39;;;;;;;8.40;4.15;;;5.90;99.90;;;;;;4977581;28;20070;-76
2022/04/22 04:31:07;;;;;;;12.88;3.72;;;6.00;99.90;;;;;;4978142;28;20081;-74
2022/04/22 04:33:37;;;;;;;12.80;4.03;;;6.00;99.90;;;;;;4993178;28;20154;-73
2022/04/22 04:36:05;;;;;;;9.65;3.63;;;6.10;99.90;;;;;;4987019;28;20756;-75
2022/04/22 04:38:34;;;;;;;10.55;3.97;;;6.10;99.90;;;;;;4968830;28;20055;-76
2022/04/22 04:41:02;;;;;;;18.50;4.53;;;6.20;99.90;;;;;;4968919;28;20046;-76
2022/04/22 04:43:32;;;;;;;16.85;5.45;;;6.20;99.90;;;;;;4960656;28;20114;-74
2022/04/22 04:46:00;;;;;;;17.92;4.57;;;6.30;99.90;;;;;;4967227;28;20125;-75
2022/04/22 04:48:27;;;;;;;13.57;4.78;;;6.40;99.90;;;;;;4952293;29;20055;-75
2022/04/22 04:50:56;;;;;;;12.32;4.28;;;6.50;99.90;;;;;;4975926;28;20526;-78
2022/04/22 04:53:24;;;;;;;12.85;3.90;;;6.50;99.90;;;;;;4979727;28;20116;-75
2022/04/22 04:55:52;;;;;;;9.82;4.22;;;6.60;99.90;;;;;;4953824;28;20042;-75
2022/04/22 04:58:21;;;;;;;12.82;4.57;;;6.60;99.90;;;;;;4968046;28;20508;-75
2022/04/22 05:00:51;;;;;;;14.65;4.10;;;6.70;99.90;;;;;;4956499;28;20035;-74
2022/04/22 05:03:18;;;;;;;14.63;4.13;;;6.70;99.90;;;;;;4955172;28;20042;-75
2022/04/22 05:05:59;;;;;;;17.50;4.68;;;6.80;99.90;;;;;;4970595;28;20082;-76
2022/04/22 05:08:31;;;;;;;39.28;6.55;;;6.90;99.90;;;;;;4969543;28;20051;-74
2022/04/22 05:10:58;;;;;;;14.00;4.43;;;7.00;99.90;;;;;;4959430;28;20086;-73
2022/04/22 05:13:26;;;;;;;16.58;4.80;;;7.10;99.90;;;;;;4958633;28;20054;-75
2022/04/22 05:15:56;;;;;;;19.55;5.07;;;7.10;99.90;;;;;;4955189;28;20058;-75
2022/04/22 05:18:24;;;;;;;30.48;5.65;;;7.20;99.90;;;;;;4964282;28;20051;-76
2022/04/22 05:20:51;;;;;;;15.52;4.70;;;7.30;99.90;;;;;;4962467;28;20069;-74
2022/04/22 05:23:19;;;;;;;24.65;5.63;;;7.40;99.90;;;;;;4971756;28;20042;-74
2022/04/22 05:25:46;;;;;;;26.15;5.28;;;7.50;99.90;;;;;;4986623;28;20048;-74
2022/04/22 05:28:14;;;;;;;15.15;5.72;;;7.60;99.90;;;;;;4986548;28;20054;-75
2022/04/22 05:33:27;;;;;;;16.55;4.85;;;8.50;99.90;;;;;;4950644;28;20047;-75
2022/04/22 05:35:57;;;;;;;15.77;5.40;;;9.20;99.90;;;;;;4981022;28;20046;-74
2022/04/22 05:38:25;;;;;;;223.95;17.15;;;9.90;99.90;;;;;;4991599;28;20130;-75
2022/04/22 05:40:52;;;;;;;48.17;6.88;;;10.60;99.90;;;;;;4975203;28;20050;-74
2022/04/22 05:43:20;;;;;;;20.08;5.82;;;11.20;99.90;;;;;;4986953;28;20141;-74
2022/04/22 05:45:49;;;;;;;34.85;5.68;;;11.80;99.90;;;;;;4987072;28;20113;-74
2022/04/22 05:48:16;;;;;;;18.50;5.22;;;12.50;99.90;;;;;;4985898;28;20054;-75
2022/04/22 05:50:45;;;;;;;26.35;7.22;;;13.00;97.80;;;;;;4987040;28;20054;-74
2022/04/22 05:53:13;;;;;;;22.08;6.68;;;13.50;94.40;;;;;;4972309;28;20050;-74
2022/04/22 05:55:41;;;;;;;30.13;6.63;;;13.90;90.80;;;;;;4971804;28;20101;-75
2022/04/22 05:58:09;;;;;;;24.08;6.10;;;14.30;85.80;;;;;;4970914;28;20114;-75
2022/04/22 06:00:39;;;;;;;20.65;6.03;;;14.50;82.00;;;;;;4982889;28;20452;-75
2022/04/22 06:03:07;;;;;;;33.70;6.55;;;14.60;80.30;;;;;;4963471;28;20110;-76
2022/04/22 06:05:35;;;;;;;21.45;6.38;;;14.90;78.80;;;;;;4952725;28;20151;-75
2022/04/22 06:10:54;;;;;;;26.05;6.55;;;15.70;73.30;;;;;;4952078;28;20062;-75
2022/04/22 06:13:22;;;;;;;13.80;6.60;;;16.00;71.70;;;;;;4951558;28;20078;-75
2022/04/22 06:15:50;;;;;;;16.30;7.07;;;16.20;67.70;;;;;;4952341;28;20051;-77
2022/04/22 06:18:17;;;;;;;18.85;6.80;;;16.20;65.90;;;;;;4961632;28;20050;-75
2022/04/22 06:20:45;;;;;;;15.35;7.45;;;16.10;67.90;;;;;;4952626;28;20051;-77
2022/04/22 06:23:13;;;;;;;59.90;8.95;;;16.30;67.90;;;;;;4951922;28;20627;-76
2022/04/22 06:25:45;;;;;;;16.77;6.82;;;16.50;66.60;;;;;;4962174;28;20146;-76
2022/04/22 06:28:13;;;;;;;22.90;7.75;;;16.70;65.00;;;;;;4970236;28;20058;-77
2022/04/22 06:30:42;;;;;;;19.52;8.30;;;17.10;63.40;;;;;;4961594;28;20440;-79
2022/04/22 06:33:13;;;;;;;20.17;7.43;;;17.50;62.00;;;;;;4951970;28;20059;-78
2022/04/22 06:35:41;;;;;;;22.40;7.82;;;17.90;60.10;;;;;;4954540;28;20117;-77
2022/04/22 06:38:09;;;;;;;24.33;7.55;;;18.20;59.10;;;;;;4960418;28;20084;-78
2022/04/22 06:46:12;;;;;;;20.95;7.28;;;18.90;57.00;;;;;;4964506;28;20061;-76
2022/04/22 06:48:40;;;;;;;29.48;7.63;;;19.20;56.30;;;;;;4971076;28;20046;-77
2022/04/22 06:51:09;;;;;;;44.50;8.68;;;19.50;55.50;;;;;;4969266;28;20118;-77
2022/04/22 06:53:37;;;;;;;25.98;8.48;;;19.80;54.80;;;;;;4966442;28;20064;-77
2022/04/22 06:56:08;;;;;;;31.00;8.20;;;19.90;54.60;;;;;;4965773;28;20066;-77
2022/04/22 06:58:38;;;;;;;16.38;7.38;;;20.00;54.40;;;;;;4966613;28;20058;-77
2022/04/22 07:01:07;;;;;;;18.20;7.47;;;20.30;53.40;;;;;;4980863;28;20054;-77
2022/04/22 07:03:35;;;;;;;20.00;7.40;;;20.50;53.70;;;;;;5004368;28;20138;-79
2022/04/22 07:06:03;;;;;;;19.33;7.50;;;20.70;52.60;;;;;;4972965;28;20043;-78
2022/04/22 07:08:30;;;;;;;23.30;7.05;;;21.10;52.20;;;;;;4926888;28;20441;-76
2022/04/22 07:11:03;;;;;;;25.30;7.00;;;21.30;51.50;;;;;;4963749;28;20051;-77
2022/04/22 07:13:35;;;;;;;;;;;21.50;51.20;;;;;;4955323;29;20055;-77
2022/04/22 07:16:04;;;;;;;20.10;8.32;;;21.80;50.50;;;;;;4958828;28;20398;-77
2022/04/22 07:18:33;;;;;;;29.40;7.28;;;22.10;50.50;;;;;;4973170;28;20075;-77
2022/04/22 07:21:01;;;;;;;22.55;7.68;;;22.30;49.80;;;;;;4970587;28;20047;-77
2022/04/22 07:23:30;;;;;;;18.23;7.97;;;22.60;49.00;;;;;;4976696;28;20135;-76
2022/04/22 07:26:00;;;;;;;73.05;10.88;;;23.00;48.40;;;;;;4972627;28;20061;-77
2022/04/22 07:28:33;;;;;;;16.15;6.90;;;23.10;48.30;;;;;;4952231;28;20058;-76
2022/04/22 07:31:03;;;;;;;18.38;7.00;;;23.00;48.20;;;;;;4973575;28;20055;-78
2022/04/22 07:33:31;;;;;;;17.67;6.97;;;23.00;48.00;;;;;;4974043;28;20050;-77
2022/04/22 07:36:00;;;;;;;16.08;6.82;;;23.30;48.30;;;;;;4973562;28;20093;-76
2022/04/22 07:38:30;;;;;;;25.40;7.15;;;23.50;47.40;;;;;;4972484;28;20066;-77
2022/04/22 07:40:57;;;;;;;15.82;8.00;;;23.70;47.10;;;;;;4973881;28;20106;-77
2022/04/22 07:48:58;;;;;;;17.45;6.50;;;24.40;46.30;;;;;;4971731;28;20055;-78
2022/04/22 07:51:27;;;;;;;24.50;7.72;;;24.80;46.00;;;;;;4968942;28;20046;-77
2022/04/22 07:53:55;;;;;;;21.13;6.78;;;25.00;45.80;;;;;;4973094;28;20507;-79
2022/04/22 07:56:22;;;;;;;19.13;7.35;;;25.00;45.10;;;;;;4972198;28;20086;-78
2022/04/22 07:58:50;;;;;;;15.30;6.18;;;25.30;44.80;;;;;;4971910;28;20046;-78
2022/04/22 08:01:19;;;;;;;8.18;4.22;;;25.50;43.80;;;;;;4972997;28;20054;-78
2022/04/22 08:03:46;;;;;;;9.77;3.70;;;25.60;43.60;;;;;;4956430;28;20547;-78
2022/04/22 08:06:14;;;;;;;9.73;4.38;;;25.90;43.60;;;;;;4971980;28;20149;-79
2022/04/22 08:08:42;;;;;;;13.18;3.83;;;26.30;43.50;;;;;;4973530;28;20158;-79
2022/04/22 08:11:09;;;;;;;14.60;3.70;;;26.50;42.50;;;;;;4971117;28;20069;-79
2022/04/22 08:13:37;;;;;;;9.95;4.10;;;26.90;42.10;;;;;;4971646;28;20554;-79
2022/04/22 08:16:05;;;;;;;17.67;3.38;;;27.10;42.20;;;;;;4955679;28;20074;-78
2022/04/22 08:18:34;;;;;;;5.18;2.88;;;27.40;41.70;;;;;;4973678;28;20059;-80
2022/04/22 08:21:02;;;;;;;26.48;4.50;;;27.60;41.40;;;;;;4973177;28;20451;-79
2022/04/22 08:23:30;;;;;;;12.05;3.42;;;27.70;41.40;;;;;;4973435;28;20051;-80
2022/04/22 08:25:58;;;;;;;31.75;4.43;;;27.80;40.90;;;;;;4973302;28;20050;-80
2022/04/22 08:28:25;;;;;;;9.05;3.10;;;27.80;40.30;;;;;;4972283;28;20150;-80
2022/04/22 08:30:53;;;;;;;43.65;5.00;;;28.00;40.40;;;;;;4971606;28;20047;-80
2022/04/22 08:33:21;;;;;;;14.18;2.45;;;28.20;40.00;;;;;;4971615;28;20484;-81
2022/04/22 08:35:49;;;;;;;9.85;2.70;;;28.30;38.80;;;;;;4973528;28;20109;-79
2022/04/22 08:38:17;;;;;;;5.50;2.47;;;28.40;38.20;;;;;;4973050;28;20062;-78
2022/04/22 08:40:45;;;;;;;3.80;2.15;;;28.20;39.50;;;;;;4971543;28;20415;-78
2022/04/22 08:43:13;;;;;;;4.22;2.13;;;28.20;38.30;;;;;;4987878;28;20051;-78
2022/04/22 08:45:40;;;;;;;4.13;1.70;;;28.30;38.30;;;;;;4971799;28;20082;-78
2022/04/22 08:50:55;;;;;;;4.20;2.25;;;28.60;37.60;;;;;;4973270;28;20061;-79
2022/04/22 08:53:28;;;;;;;3.60;2.00;;;29.00;37.60;;;;;;4972890;28;20101;-78
2022/04/22 08:55:57;;;;;;;3.17;2.10;;;29.20;36.60;;;;;;4972325;28;20145;-78
2022/04/22 08:58:26;;;;;;;6.32;2.78;;;29.30;37.00;;;;;;4987667;28;20538;-79
2022/04/22 09:00:56;;;;;;;5.80;1.92;;;28.90;37.50;;;;;;4971524;28;20069;-78
2022/04/22 09:03:23;;;;;;;4.85;2.30;;;28.50;38.20;;;;;;4969225;28;20508;-80
2022/04/22 09:05:51;;;;;;;3.42;2.38;;;28.40;37.90;;;;;;4972938;28;20043;-79
2022/04/22 09:08:24;;;;;;;23.30;2.90;;;28.60;38.80;;;;;;4971265;28;20047;-80
2022/04/22 09:10:57;;;;;;;5.38;2.47;;;29.10;38.30;;;;;;4972670;28;20075;-80
2022/04/22 09:13:26;;;;;;;6.30;2.30;;;29.30;37.30;;;;;;4966779;28;20144;-78
2022/04/22 09:15:54;;;;;;;4.88;2.10;;;29.80;37.10;;;;;;4970703;28;20065;-79
2022/04/22 09:18:25;;;;;;;7.68;2.78;;;30.10;36.10;;;;;;4971757;28;20142;-80
2022/04/22 09:21:02;;;;;;;8.32;2.80;;;29.80;36.50;;;;;;4971251;28;20138;-80
2022/04/22 09:23:35;;;;;;;3.15;2.13;;;29.60;36.50;;;;;;4972271;28;20078;-80
2022/04/22 09:26:05;;;;;;;3.72;2.40;;;29.40;36.20;;;;;;4972622;28;20563;-80
2022/04/22 09:28:34;;;;;;;7.53;2.13;;;29.00;36.20;;;;;;4971369;28;20053;-80
2022/04/22 09:31:04;;;;;;;3.58;2.40;;;28.90;37.10;;;;;;4966263;28;20544;-79
2022/04/22 09:33:36;;;;;;;3.28;2.47;;;29.20;37.60;;;;;;4971929;28;20051;-79
2022/04/22 09:44:59;;;;;;;5.65;2.42;;;30.30;36.30;;;;;;4971867;28;20050;-80
2022/04/22 09:47:29;;;;;;;4.32;2.33;;;30.50;35.70;;;;;;4971070;28;20145;-79
2022/04/22 09:49:58;;;;;;;6.18;2.67;;;30.20;34.90;;;;;;4965774;28;20047;-79
2022/04/22 09:52:34;;;;;;;7.03;2.60;;;30.20;35.50;;;;;;4970456;28;20051;-79
2022/04/22 09:55:06;;;;;;;4.22;2.55;;;30.70;36.60;;;;;;4970772;28;20423;-79
2022/04/22 09:57:52;;;;;;;7.10;2.33;;;30.80;34.80;;;;;;4966132;28;20053;-79
2022/04/22 10:00:20;;;;;;;13.48;2.92;;;31.10;34.80;;;;;;4971969;28;20471;-81
2022/04/22 10:02:51;;;;;;;7.32;2.15;;;31.40;34.80;;;;;;4970284;28;20047;-79
2022/04/22 10:05:24;;;;;;;9.65;2.50;;;31.50;34.20;;;;;;4971309;28;20054;-80
2022/04/22 10:07:56;;;;;;;9.38;2.90;;;31.40;34.50;;;;;;4970479;28;20496;-77
2022/04/22 10:10:39;;;;;;;11.95;2.75;;;31.50;34.50;;;;;;4971992;28;20070;-78
2022/04/22 10:13:14;;;;;;;3.85;2.50;;;31.50;34.50;;;;;;4971513;28;20073;-77
2022/04/22 10:15:42;;;;;;;9.18;2.50;;;31.60;34.30;;;;;;4970224;28;20062;-76
2022/04/22 10:18:11;;;;;;;9.07;2.50;;;31.80;34.00;;;;;;4971977;28;20070;-79
2022/04/22 10:20:40;;;;;;;19.83;2.97;;;31.80;33.90;;;;;;4971730;28;20555;-78
2022/04/22 10:23:08;;;;;;;4.07;2.13;;;31.90;33.70;;;;;;4971998;28;20051;-79
2022/04/22 10:25:38;;;;;;;6.10;2.55;;;32.00;33.10;;;;;;4970663;28;20061;-78
2022/04/22 10:28:08;;;;;;;11.55;1.80;;;32.20;32.90;;;;;;4971857;28;20142;-78
2022/04/22 10:30:38;;;;;;;3.78;2.47;;;32.20;32.40;;;;;;4974969;28;20049;-78
2022/04/22 10:33:07;;;;;;;21.30;3.15;;;32.20;32.80;;;;;;4974398;28;20069;-77
2022/04/22 10:35:41;;;;;;;6.35;2.20;;;32.30;33.10;;;;;;4973518;28;20472;-77
2022/04/22 10:38:31;;;;;;;7.25;2.17;;;32.30;32.70;;;;;;4975468;28;20066;-79
2022/04/22 10:41:16;;;;;;;12.73;2.67;;;32.00;32.70;;;;;;4974858;28;20146;-79
2022/04/22 10:43:43;;;;;;;8.93;2.40;;;31.90;32.80;;;;;;4966668;28;20420;-78
2022/04/22 10:49:14;;;;;;;7.38;2.10;;;31.40;32.40;;;;;;4974579;28;20181;-79
2022/04/22 10:52:09;;;;;;;14.25;2.53;;;30.80;33.30;;;;;;4955439;28;20106;-77
2022/04/22 10:55:10;;;;;;;6.90;2.13;;;30.70;32.90;;;;;;4967831;28;20051;-80
2022/04/22 10:57:42;;;;;;;6.00;1.85;;;30.40;33.00;;;;;;4955668;28;20054;-77
2022/04/22 11:00:30;;;;;;;5.33;2.50;;;30.30;33.30;;;;;;4964603;28;20149;-76
2022/04/22 11:03:18;;;;;;;6.50;2.17;;;30.20;33.70;;;;;;4971133;28;20310;-75
2022/04/22 11:05:48;;;;;;;8.15;2.53;;;29.90;33.50;;;;;;4974098;28;20051;-76
2022/04/22 11:08:26;;;;;;;4.20;2.08;;;29.90;34.10;;;;;;4956589;28;20215;-76
2022/04/22 11:11:06;;;;;;;6.95;2.05;;;30.20;33.30;;;;;;4974687;28;20061;-77
2022/04/22 11:13:41;;;;;;;8.57;2.35;;;30.70;32.40;;;;;;4972889;28;20046;-75
2022/04/22 11:16:13;;;;;;;8.20;2.58;;;31.40;33.20;;;;;;4973052;28;20145;-75
2022/04/22 11:18:42;;;;;;;11.10;2.15;;;32.00;31.60;;;;;;4969723;28;20054;-75
2022/04/22 11:21:16;;;;;;;5.55;2.50;;;32.50;31.30;;;;;;4972858;28;20058;-76
2022/04/22 11:23:48;;;;;;;16.92;2.92;;;33.00;31.00;;;;;;4973837;28;20153;-76
2022/04/22 11:26:18;;;;;;;;;;;33.30;30.40;;;;;;4972486;28;20074;-76
2022/04/22 11:28:47;;;;;;;6.43;2.42;;;33.60;30.30;;;;;;4974560;28;20378;-75
2022/04/22 11:31:18;;;;;;;17.02;2.78;;;33.70;30.00;;;;;;4972812;28;20053;-75
2022/04/22 11:33:54;;;;;;;9.27;2.63;;;33.80;30.10;;;;;;4972769;28;20090;-75
2022/04/22 11:36:24;;;;;;;11.23;2.72;;;33.60;30.20;;;;;;4973311;28;20159;-73
2022/04/22 11:38:53;;;;;;;57.30;4.68;;;33.50;30.80;;;;;;4974251;28;20043;-75
2022/04/22 11:41:21;;;;;;;17.08;2.75;;;33.50;30.10;;;;;;4968830;28;20419;-74
2022/04/22 11:43:52;;;;;;;9.30;2.47;;;33.40;30.10;;;;;;4954317;28;20105;-75
2022/04/22 11:46:19;;;;;;;4.10;1.90;;;33.40;29.80;;;;;;4972655;28;20051;-74
2022/04/22 11:48:49;;;;;;;7.68;2.20;;;33.50;29.90;;;;;;4987424;28;20051;-76
2022/04/22 11:51:19;;;;;;;12.15;2.53;;;33.70;29.80;;;;;;4953945;28;20078;-76
2022/04/22 11:53:49;;;;;;;9.05;2.50;;;33.70;30.20;;;;;;4953986;28;20066;-75
2022/04/22 11:56:19;;;;;;;4.03;2.10;;;34.00;29.80;;;;;;4965729;28;20050;-75
2022/04/22 11:58:53;;;;;;;8.43;2.42;;;34.30;29.40;;;;;;4973283;28;20129;-76
2022/04/22 12:06:57;;;;;;;8.60;2.35;;;34.40;29.60;;;;;;4952357;28;20105;-75
2022/04/22 12:09:25;;;;;;;12.75;3.00;;;34.10;29.30;;;;;;4973628;28;20105;-75
2022/04/22 12:11:53;;;;;;;7.57;2.33;;;34.20;29.70;;;;;;4971777;28;20074;-76
2022/04/22 12:14:27;;;;;;;4.38;1.90;;;34.40;29.20;;;;;;4971423;28;20117;-74
2022/04/22 12:16:59;;;;;;;2.53;1.42;;;34.60;29.50;;;;;;4973507;28;20117;-76
2022/04/22 12:19:26;;;;;;;;;;;34.60;29.20;;;;;;4973446;28;20581;-74
2022/04/22 12:21:55;;;;;;;3.05;1.52;;;34.50;29.30;;;;;;4972406;28;20350;-76
2022/04/22 12:24:23;;;;;;;2.92;1.52;;;34.80;28.80;;;;;;4986973;28;20058;-79
2022/04/22 12:26:52;;;;;;;5.82;1.20;;;34.70;29.00;;;;;;4967851;28;20425;-78
2022/04/22 12:29:22;;;;;;;4.70;0.93;;;34.90;28.50;;;;;;4954677;28;20106;-82
2022/04/22 12:31:56;;;;;;;9.43;1.20;;;34.80;28.30;;;;;;4929522;28;20460;-80
2022/04/22 12:34:30;;;;;;;2.33;0.82;;;34.40;28.60;;;;;;4983095;28;20055;-79
2022/04/22 12:36:59;;;;;;;1.05;0.88;;;34.60;28.70;;;;;;4971953;28;20050;-79
2022/04/22 12:39:38;;;;;;;4.80;1.00;;;34.70;28.20;;;;;;4987980;28;20141;-77
2022/04/22 12:42:07;;;;;;;6.43;1.15;;;34.70;28.60;;;;;;4970368;28;20055;-79
2022/04/22 12:44:35;;;;;;;6.47;1.48;;;34.90;28.80;;;;;;4973037;28;20057;-77
2022/04/22 12:52:46;;;;;;;3.30;1.00;;;34.70;29.60;;;;;;4969477;28;20578;-78
2022/04/22 12:55:19;;;;;;;3.00;0.85;;;34.30;29.30;;;;;;4967466;28;20475;-78
2022/04/22 12:57:59;;;;;;;4.25;1.30;;;34.40;29.50;;;;;;4958504;28;20081;-78
2022/04/22 13:00:33;;;;;;;29.80;2.08;;;34.50;29.80;;;;;;4961401;28;20479;-78
2022/04/22 13:03:11;;;;;;;3.08;1.15;;;34.50;29.70;;;;;;4977106;28;20173;-77
2022/04/22 13:05:39;;;;;;;3.67;1.10;;;34.60;29.50;;;;;;5001501;28;20054;-77
2022/04/22 13:08:11;;;;;;;4.13;1.23;;;34.50;30.10;;;;;;5004531;28;20045;-77
2022/04/22 13:10:40;;;;;;;2.60;1.33;;;34.70;29.40;;;;;;4987416;28;20073;-78
2022/04/22 13:13:11;;;;;;;7.03;1.10;;;34.90;29.30;;;;;;4977090;28;20050;-80
2022/04/22 13:15:38;;;;;;;1.30;1.07;;;34.80;29.50;;;;;;4982825;28;20335;-80
2022/04/22 13:18:07;;;;;;;3.97;1.05;;;34.60;29.30;;;;;;4982376;28;20081;-80
2022/04/22 13:20:35;;;;;;;3.45;1.52;;;34.60;29.50;;;;;;4964683;28;20146;-77
2022/04/22 13:23:02;;;;;;;3.80;1.23;;;34.40;29.80;;;;;;4990110;28;20049;-77
2022/04/22 13:25:30;;;;;;;5.00;0.98;;;34.30;29.60;;;;;;4980883;28;20051;-78
2022/04/22 13:27:57;;;;;;;4.30;1.17;;;34.20;29.50;;;;;;4983997;28;20159;-78
2022/04/22 13:30:27;;;;;;;7.72;1.42;;;34.10;29.80;;;;;;4987956;28;20050;-79
2022/04/22 13:32:55;;;;;;;4.25;1.20;;;34.20;29.30;;;;;;4978255;28;20050;-81
2022/04/22 13:35:24;;;;;;;1.52;1.13;;;34.20;29.80;;;;;;4988862;28;20144;-81
2022/04/22 13:37:52;;;;;;;5.30;1.00;;;34.10;29.70;;;;;;4986277;28;20046;-76
2022/04/22 13:40:19;;;;;;;9.13;1.75;;;33.90;29.80;;;;;;5003406;28;20407;-77
2022/04/22 13:42:48;;;;;;;3.28;1.10;;;33.80;30.20;;;;;;4983066;28;20478;-76
2022/04/22 13:53:33;;;;;;;5.40;1.52;;;33.30;29.90;;;;;;5002540;28;20125;-76
2022/04/22 13:56:04;;;;;;;4.47;1.55;;;33.40;30.10;;;;;;4978523;28;20061;-75
2022/04/22 13:58:33;;;;;;;5.10;1.45;;;33.20;29.50;;;;;;4970839;28;20165;-74
2022/04/22 14:01:02;;;;;;;2.88;1.05;;;33.10;29.40;;;;;;4953596;28;20113;-75
2022/04/22 14:03:30;;;;;;;4.55;1.02;;;32.90;29.70;;;;;;4965074;28;20055;-75
2022/04/22 14:05:59;;;;;;;6.45;1.23;;;32.70;30.00;;;;;;4975043;28;20149;-75
2022/04/22 14:08:27;;;;;;;12.48;1.33;;;32.60;29.90;;;;;;4975058;28;20093;-75
2022/04/22 14:10:55;;;;;;;5.75;1.80;;;32.40;29.80;;;;;;4973700;28;20043;-75
2022/04/22 14:13:22;;;;;;;5.70;2.20;;;32.30;29.50;;;;;;4957452;28;20051;-75
2022/04/22 14:15:50;;;;;;;2.20;1.17;;;32.10;29.90;;;;;;4967181;28;20055;-76